Time;durP1;ratioP1;P1;durP2;ratioP2;P2;SDS_P1;SDS_P2;PMS_P1;PMS_P2;Temp;Humidity;BMP_temperature;BMP_pressure;BME280_temperature;BME280_humidity;BME280_pressure;Samples;Min_cycle;Max_cycle;Signal;HPM_P1;HPM_P2
2023/07/28 00:00:04;;;;;;;1.75;0.57;;;;;;;;;;5053259;28;20769;-72
2023/07/28 00:02:29;;;;;;;2.28;0.60;;;;;;;;;;5053196;28;20028;-71
2023/07/28 00:04:55;;;;;;;0.73;0.43;;;;;;;;;;5053203;28;20109;-71
2023/07/28 00:07:20;;;;;;;1.02;0.60;;;;;;;;;;5053673;28;20262;-71
2023/07/28 00:09:45;;;;;;;2.00;0.50;;;;;;;;;;5053121;28;20083;-71
2023/07/28 00:12:10;;;;;;;0.50;0.50;;;;;;;;;;5053053;28;20020;-71
2023/07/28 00:14:36;;;;;;;0.63;0.50;;;;;;;;;;5053294;28;20625;-71
2023/07/28 00:17:01;;;;;;;0.82;0.52;;;;;;;;;;5052999;28;20265;-72
2023/07/28 00:19:27;;;;;;;0.82;0.50;;;;;;;;;;5052821;28;20442;-71
2023/07/28 00:21:52;;;;;;;0.50;0.47;;;;;;;;;;5052822;28;20025;-73
2023/07/28 00:24:17;;;;;;;0.63;0.40;;;;;;;;;;5053446;28;20538;-72
2023/07/28 00:26:44;;;;;;;1.30;0.40;;;;;;;;;;5052969;28;20055;-73
2023/07/28 00:29:09;;;;;;;0.50;0.50;;;;;;;;;;5051671;28;20017;-72
2023/07/28 00:31:35;;;;;;;0.50;0.50;;;;;;;;;;5051391;28;20017;-72
2023/07/28 00:34:02;;;;;;;0.52;0.50;;;;;;;;;;5052864;28;20027;-72
2023/07/28 00:36:27;;;;;;;1.20;0.60;;;;;;;;;;5052823;28;20036;-71
2023/07/28 00:38:53;;;;;;;2.15;0.43;;;;;;;;;;5052976;28;20021;-71
2023/07/28 00:41:18;;;;;;;0.60;0.60;;;;;;;;;;5053000;28;20112;-71
2023/07/28 00:43:43;;;;;;;0.50;0.50;;;;;;;;;;5052775;28;20044;-71
2023/07/28 00:46:10;;;;;;;1.33;0.80;;;;;;;;;;5052713;28;20021;-72
2023/07/28 00:48:36;;;;;;;0.52;0.50;;;;;;;;;;5052856;28;20070;-73
2023/07/28 00:51:01;;;;;;;0.65;0.65;;;;;;;;;;5052674;28;20021;-71
2023/07/28 00:53:27;;;;;;;1.17;0.80;;;;;;;;;;5051408;28;20029;-70
2023/07/28 00:55:52;;;;;;;0.68;0.60;;;;;;;;;;5052663;28;20029;-71
2023/07/28 00:58:18;;;;;;;3.10;0.70;;;;;;;;;;5052620;28;20025;-72
2023/07/28 01:00:43;;;;;;;0.60;0.60;;;;;;;;;;5052384;28;20066;-72
2023/07/28 01:03:08;;;;;;;0.93;0.60;;;;;;;;;;5052589;28;20075;-72
2023/07/28 01:05:45;;;;;;;0.60;0.60;;;;;;;;;;5052568;28;20662;-72
2023/07/28 01:08:45;;;;;;;0.68;0.57;;;;;;;;;;5051347;28;20119;-71
2023/07/28 01:11:10;;;;;;;1.50;0.65;;;;;;;;;;5051242;28;20053;-72
2023/07/28 01:13:35;;;;;;;3.10;0.65;;;;;;;;;;5051197;28;20060;-71
2023/07/28 01:16:00;;;;;;;0.70;0.70;;;;;;;;;;5052615;28;20032;-72
2023/07/28 01:18:27;;;;;;;0.60;0.60;;;;;;;;;;5052986;28;20029;-72
2023/07/28 01:20:57;;;;;;;1.88;0.80;;;;;;;;;;5052075;28;20037;-71
2023/07/28 01:23:53;;;;;;;0.98;0.60;;;;;;;;;;5052692;28;20029;-70
2023/07/28 01:26:30;;;;;;;1.42;0.90;;;;;;;;;;5044756;28;20116;-71
2023/07/28 01:28:57;;;;;;;2.33;1.10;;;;;;;;;;5052510;28;20488;-72
2023/07/28 01:31:22;;;;;;;1.85;1.10;;;;;;;;;;5052285;28;20075;-72
2023/07/28 01:33:47;;;;;;;2.55;0.95;;;;;;;;;;5052295;28;20025;-72
2023/07/28 01:36:12;;;;;;;0.75;0.75;;;;;;;;;;5052304;28;20025;-72
2023/07/28 01:38:38;;;;;;;1.33;1.00;;;;;;;;;;5052151;28;20025;-71
2023/07/28 01:41:03;;;;;;;2.10;1.02;;;;;;;;;;5052195;28;20372;-70
2023/07/28 01:43:28;;;;;;;2.72;1.15;;;;;;;;;;5052207;28;20503;-73
2023/07/28 01:45:53;;;;;;;3.33;1.20;;;;;;;;;;5054276;28;20118;-71
2023/07/28 01:48:19;;;;;;;3.85;1.25;;;;;;;;;;5054400;28;20269;-72
2023/07/28 01:50:46;;;;;;;2.30;1.20;;;;;;;;;;5055544;28;20021;-72
2023/07/28 01:53:12;;;;;;;2.92;1.30;;;;;;;;;;5055604;28;20480;-72
2023/07/28 01:55:37;;;;;;;1.80;1.23;;;;;;;;;;5055591;28;20029;-72
2023/07/28 01:58:03;;;;;;;3.05;1.38;;;;;;;;;;5056043;28;20051;-72
2023/07/28 02:00:28;;;;;;;2.13;1.17;;;;;;;;;;5055298;28;20075;-72
2023/07/28 02:02:54;;;;;;;2.60;1.40;;;;;;;;;;5055724;28;20031;-72
2023/07/28 02:05:19;;;;;;;2.63;1.23;;;;;;;;;;5055353;28;20067;-72
2023/07/28 02:07:45;;;;;;;2.30;1.17;;;;;;;;;;5055297;28;20104;-72
2023/07/28 02:10:11;;;;;;;2.10;1.30;;;;;;;;;;5053794;28;20376;-72
2023/07/28 02:12:40;;;;;;;1.75;1.10;;;;;;;;;;5055281;28;20070;-72
2023/07/28 02:15:06;;;;;;;1.92;1.10;;;;;;;;;;5055458;28;20032;-72
2023/07/28 02:17:31;;;;;;;2.00;1.27;;;;;;;;;;5055124;28;20025;-72
2023/07/28 02:19:56;;;;;;;3.28;1.27;;;;;;;;;;5054825;28;20151;-72
2023/07/28 02:22:22;;;;;;;1.77;1.20;;;;;;;;;;5053753;28;20025;-71
2023/07/28 02:24:47;;;;;;;1.65;1.10;;;;;;;;;;5054981;28;20020;-71
2023/07/28 02:27:12;;;;;;;3.03;1.10;;;;;;;;;;5053716;28;20033;-71
2023/07/28 02:29:37;;;;;;;4.05;1.23;;;;;;;;;;5054840;28;20265;-72
2023/07/28 02:32:03;;;;;;;1.58;1.23;;;;;;;;;;5053438;28;20024;-72
2023/07/28 02:34:28;;;;;;;1.65;1.10;;;;;;;;;;5055347;28;20052;-72
2023/07/28 02:36:53;;;;;;;2.72;1.30;;;;;;;;;;5054788;28;20484;-72
2023/07/28 02:39:20;;;;;;;7.13;1.47;;;;;;;;;;5054686;28;20029;-72
2023/07/28 02:41:45;;;;;;;1.60;1.20;;;;;;;;;;5053427;28;20281;-72
2023/07/28 02:44:10;;;;;;;1.85;1.13;;;;;;;;;;5054699;28;20415;-72
2023/07/28 02:46:36;;;;;;;2.43;1.30;;;;;;;;;;5054616;28;20495;-72
2023/07/28 02:49:03;;;;;;;1.85;1.02;;;;;;;;;;5054580;28;20257;-72
2023/07/28 02:51:29;;;;;;;1.70;1.17;;;;;;;;;;5054520;28;20020;-72
2023/07/28 02:53:54;;;;;;;2.05;1.02;;;;;;;;;;5054438;28;20037;-71
2023/07/28 02:56:20;;;;;;;1.20;0.97;;;;;;;;;;5054452;28;20468;-72
2023/07/28 02:58:45;;;;;;;4.07;1.02;;;;;;;;;;5053061;28;20288;-72
2023/07/28 03:01:11;;;;;;;2.45;1.20;;;;;;;;;;5054254;28;20032;-71
2023/07/28 03:03:36;;;;;;;1.20;1.00;;;;;;;;;;5054277;28;20495;-71
2023/07/28 03:06:01;;;;;;;6.60;1.30;;;;;;;;;;5054243;28;20040;-72
2023/07/28 03:08:27;;;;;;;3.78;1.27;;;;;;;;;;5054112;28;20776;-72
2023/07/28 03:10:57;;;;;;;2.80;1.40;;;;;;;;;;5052816;28;20407;-72
2023/07/28 03:13:22;;;;;;;3.22;1.48;;;;;;;;;;5054133;28;20024;-71
2023/07/28 03:15:47;;;;;;;3.83;1.30;;;;;;;;;;5054042;28;20024;-72
2023/07/28 03:18:12;;;;;;;1.23;0.93;;;;;;;;;;5054048;28;20257;-72
2023/07/28 03:20:38;;;;;;;1.87;1.20;;;;;;;;;;5052489;28;20305;-72
2023/07/28 03:23:03;;;;;;;1.58;1.10;;;;;;;;;;5052682;28;20274;-72
2023/07/28 03:25:28;;;;;;;6.10;1.10;;;;;;;;;;5053915;28;20119;-72
2023/07/28 03:27:53;;;;;;;1.35;1.15;;;;;;;;;;5053826;28;20258;-72
2023/07/28 03:30:19;;;;;;;2.25;1.00;;;;;;;;;;5053791;28;20468;-71
2023/07/28 03:32:44;;;;;;;1.67;1.30;;;;;;;;;;5053710;28;20028;-72
2023/07/28 03:35:09;;;;;;;0.87;0.87;;;;;;;;;;5053737;28;20025;-72
2023/07/28 03:37:34;;;;;;;2.65;1.15;;;;;;;;;;5053671;28;20261;-73
2023/07/28 03:40:00;;;;;;;2.63;1.20;;;;;;;;;;5053489;28;20021;-72
2023/07/28 03:42:25;;;;;;;1.23;1.10;;;;;;;;;;5053824;28;20254;-71
2023/07/28 03:44:51;;;;;;;6.18;1.50;;;;;;;;;;5053786;28;20017;-72
2023/07/28 03:47:16;;;;;;;1.80;1.38;;;;;;;;;;5053535;28;20029;-72
2023/07/28 03:49:41;;;;;;;2.90;1.30;;;;;;;;;;5052065;28;20040;-72
2023/07/28 03:52:06;;;;;;;1.45;1.10;;;;;;;;;;5053410;28;20258;-72
2023/07/28 03:54:32;;;;;;;2.15;1.00;;;;;;;;;;5053642;28;20035;-71
2023/07/28 03:56:57;;;;;;;2.28;1.30;;;;;;;;;;5053406;28;20511;-71
2023/07/28 03:59:22;;;;;;;1.10;1.00;;;;;;;;;;5052110;28;20029;-72
2023/07/28 04:01:48;;;;;;;1.42;0.90;;;;;;;;;;5053278;28;20031;-71
2023/07/28 04:04:13;;;;;;;0.90;0.90;;;;;;;;;;5053264;28;20031;-71
2023/07/28 04:06:41;;;;;;;1.92;1.00;;;;;;;;;;5052758;28;20499;-72
2023/07/28 04:09:06;;;;;;;0.80;0.80;;;;;;;;;;5053674;28;20078;-72
2023/07/28 04:11:32;;;;;;;2.08;1.25;;;;;;;;;;5053215;28;20487;-73
2023/07/28 04:13:57;;;;;;;1.20;1.10;;;;;;;;;;5053377;28;20024;-71
2023/07/28 04:16:22;;;;;;;1.88;1.00;;;;;;;;;;5053091;28;20033;-71
2023/07/28 04:18:47;;;;;;;3.28;0.82;;;;;;;;;;5053040;28;20494;-71
2023/07/28 04:21:13;;;;;;;3.80;1.00;;;;;;;;;;5053580;28;20024;-71
2023/07/28 04:23:38;;;;;;;1.67;1.10;;;;;;;;;;5052987;28;20254;-71
2023/07/28 04:26:03;;;;;;;1.50;1.00;;;;;;;;;;5052856;28;20531;-73
2023/07/28 04:28:28;;;;;;;1.83;1.00;;;;;;;;;;5053221;28;20323;-71
2023/07/28 04:30:54;;;;;;;1.00;0.90;;;;;;;;;;5052793;28;20258;-72
2023/07/28 04:33:19;;;;;;;0.90;0.90;;;;;;;;;;5052884;28;20268;-72
2023/07/28 04:35:44;;;;;;;1.10;0.93;;;;;;;;;;5052794;28;20024;-71
2023/07/28 04:38:09;;;;;;;3.00;0.90;;;;;;;;;;5053049;28;20279;-71
2023/07/28 04:40:35;;;;;;;1.10;1.00;;;;;;;;;;5052728;28;20290;-72
2023/07/28 04:43:00;;;;;;;0.93;0.80;;;;;;;;;;5053020;28;20269;-71
2023/07/28 04:45:25;;;;;;;4.53;0.90;;;;;;;;;;5052778;28;20273;-71
2023/07/28 04:47:50;;;;;;;2.38;0.90;;;;;;;;;;5052786;28;20785;-71
2023/07/28 04:50:16;;;;;;;1.42;1.00;;;;;;;;;;5052667;28;20025;-71
2023/07/28 04:52:41;;;;;;;2.00;0.88;;;;;;;;;;5052992;28;20107;-72
2023/07/28 04:55:06;;;;;;;1.08;0.90;;;;;;;;;;5052690;28;20373;-72
2023/07/28 04:57:32;;;;;;;1.60;1.00;;;;;;;;;;5052600;28;20072;-72
2023/07/28 04:59:57;;;;;;;0.80;0.75;;;;;;;;;;5052694;28;20111;-72
2023/07/28 05:02:22;;;;;;;7.78;1.00;;;;;;;;;;5052503;28;20040;-72
2023/07/28 05:04:47;;;;;;;0.80;0.80;;;;;;;;;;5053162;28;20021;-73
2023/07/28 05:07:13;;;;;;;0.80;0.80;;;;;;;;;;5051227;28;20024;-71
2023/07/28 05:09:38;;;;;;;1.02;0.80;;;;;;;;;;5052430;28;20262;-72
2023/07/28 05:12:04;;;;;;;2.22;0.82;;;;;;;;;;5051208;28;20020;-71
2023/07/28 05:14:29;;;;;;;1.10;0.98;;;;;;;;;;5051216;28;20523;-71
2023/07/28 05:16:54;;;;;;;2.38;0.75;;;;;;;;;;5052912;28;20032;-71
2023/07/28 05:19:19;;;;;;;4.23;1.00;;;;;;;;;;5052128;28;20055;-71
2023/07/28 05:21:45;;;;;;;1.80;0.90;;;;;;;;;;5056573;28;20675;-71
2023/07/28 05:24:10;;;;;;;0.77;0.77;;;;;;;;;;5054939;28;20345;-71
2023/07/28 05:26:35;;;;;;;1.30;0.70;;;;;;;;;;5056193;28;20250;-72
2023/07/28 05:29:00;;;;;;;2.60;0.80;;;;;;;;;;5056358;28;20277;-71
2023/07/28 05:31:26;;;;;;;1.13;0.80;;;;;;;;;;5056124;28;20258;-72
2023/07/28 05:33:53;;;;;;;0.65;0.65;;;;;;;;;;5056081;28;20736;-71
2023/07/28 05:36:18;;;;;;;1.67;0.82;;;;;;;;;;5056016;28;20104;-72
2023/07/28 05:38:44;;;;;;;1.20;0.70;;;;;;;;;;5054700;28;20141;-72
2023/07/28 05:41:09;;;;;;;0.97;0.90;;;;;;;;;;5054613;28;20423;-72
2023/07/28 05:43:34;;;;;;;0.63;0.63;;;;;;;;;;5056036;28;20254;-71
2023/07/28 05:46:00;;;;;;;1.45;0.73;;;;;;;;;;5056028;28;20496;-71
2023/07/28 05:48:26;;;;;;;1.08;0.90;;;;;;;;;;5055735;28;20108;-71
2023/07/28 05:50:53;;;;;;;0.80;0.80;;;;;;;;;;5055954;28;20494;-72
2023/07/28 05:53:19;;;;;;;0.80;0.70;;;;;;;;;;5055924;28;20025;-71
2023/07/28 05:55:45;;;;;;;1.67;0.90;;;;;;;;;;5055659;28;20025;-72
2023/07/28 05:58:10;;;;;;;4.20;0.77;;;;;;;;;;5055573;28;20491;-72
2023/07/28 06:00:40;;;;;;;0.93;0.77;;;;;;;;;;5055615;28;20471;-71
2023/07/28 06:03:05;;;;;;;3.88;0.90;;;;;;;;;;5055499;28;20021;-71
2023/07/28 06:05:30;;;;;;;0.82;0.70;;;;;;;;;;5055628;28;20112;-72
2023/07/28 06:07:55;;;;;;;1.37;0.80;;;;;;;;;;5055347;28;20035;-72
2023/07/28 06:10:21;;;;;;;0.73;0.70;;;;;;;;;;5055539;28;20266;-72
2023/07/28 06:12:46;;;;;;;2.73;0.83;;;;;;;;;;5054071;28;20028;-72
2023/07/28 06:15:11;;;;;;;1.00;0.87;;;;;;;;;;5055464;28;20621;-72
2023/07/28 06:17:36;;;;;;;0.80;0.80;;;;;;;;;;5055152;28;20257;-72
2023/07/28 06:20:02;;;;;;;1.10;0.70;;;;;;;;;;5054975;28;20036;-72
2023/07/28 06:22:27;;;;;;;0.90;0.70;;;;;;;;;;5054937;28;20757;-71
2023/07/28 06:24:52;;;;;;;1.75;0.70;;;;;;;;;;5055041;28;20115;-72
2023/07/28 06:27:17;;;;;;;0.80;0.70;;;;;;;;;;5053674;28;20025;-72
2023/07/28 06:29:43;;;;;;;4.53;0.90;;;;;;;;;;5053186;28;20266;-72
2023/07/28 06:32:09;;;;;;;0.95;0.80;;;;;;;;;;5054841;28;20013;-71
2023/07/28 06:34:34;;;;;;;1.30;0.70;;;;;;;;;;5054763;28;20029;-71
2023/07/28 06:36:59;;;;;;;1.70;0.60;;;;;;;;;;5054900;28;20108;-71
2023/07/28 06:39:24;;;;;;;1.15;0.80;;;;;;;;;;5054547;28;20258;-71
2023/07/28 06:41:50;;;;;;;1.13;0.70;;;;;;;;;;5054726;28;20395;-71
2023/07/28 06:44:16;;;;;;;1.17;0.70;;;;;;;;;;5054600;28;20025;-71
2023/07/28 06:46:41;;;;;;;0.70;0.70;;;;;;;;;;5054627;28;20028;-72
2023/07/28 06:49:06;;;;;;;3.20;0.90;;;;;;;;;;5054848;28;20024;-71
2023/07/28 06:51:32;;;;;;;0.60;0.60;;;;;;;;;;5054554;28;20392;-71
2023/07/28 06:53:57;;;;;;;0.65;0.65;;;;;;;;;;5054481;28;20431;-72
2023/07/28 06:56:22;;;;;;;1.48;0.70;;;;;;;;;;5054412;28;20067;-72
2023/07/28 06:58:48;;;;;;;1.03;0.60;;;;;;;;;;5054765;28;20472;-72
2023/07/28 07:01:13;;;;;;;1.90;0.60;;;;;;;;;;5054157;28;20278;-72
2023/07/28 07:03:38;;;;;;;0.70;0.60;;;;;;;;;;5054806;28;20266;-72
2023/07/28 07:06:03;;;;;;;0.50;0.50;;;;;;;;;;5054339;28;20250;-70
2023/07/28 07:08:29;;;;;;;0.83;0.67;;;;;;;;;;5054523;28;20021;-71
2023/07/28 07:10:54;;;;;;;0.52;0.45;;;;;;;;;;5054327;28;20602;-71
2023/07/28 07:13:20;;;;;;;2.15;0.50;;;;;;;;;;5054124;28;20017;-71
2023/07/28 07:15:46;;;;;;;0.65;0.52;;;;;;;;;;5053984;28;20138;-71
2023/07/28 07:18:11;;;;;;;0.50;0.50;;;;;;;;;;5054181;28;20032;-72
2023/07/28 07:20:38;;;;;;;0.57;0.57;;;;;;;;;;5053693;28;20037;-71
2023/07/28 07:23:04;;;;;;;0.93;0.45;;;;;;;;;;5053945;28;20033;-72
2023/07/28 07:25:29;;;;;;;0.40;0.40;;;;;;;;;;5054105;28;20025;-71
2023/07/28 07:27:55;;;;;;;0.50;0.50;;;;;;;;;;5054226;28;20036;-71
2023/07/28 07:30:20;;;;;;;0.80;0.60;;;;;;;;;;5053774;28;20017;-70
2023/07/28 07:32:46;;;;;;;2.40;0.50;;;;;;;;;;5053738;28;20111;-71
2023/07/28 07:35:12;;;;;;;3.80;0.60;;;;;;;;;;5053746;28;20124;-72
2023/07/28 07:37:37;;;;;;;0.60;0.60;;;;;;;;;;5069065;28;20024;-72
2023/07/28 07:40:03;;;;;;;0.50;0.50;;;;;;;;;;5052284;28;20464;-71
2023/07/28 07:42:42;;;;;;;2.47;0.60;;;;;;;;;;5053306;28;20029;-72
2023/07/28 07:45:08;;;;;;;1.00;0.50;;;;;;;;;;5053862;28;20020;-71
2023/07/28 07:47:34;;;;;;;0.60;0.60;;;;;;;;;;5053433;28;20032;-71
2023/07/28 07:50:00;;;;;;;0.60;0.50;;;;;;;;;;5053377;28;20021;-70
2023/07/28 07:52:25;;;;;;;0.63;0.50;;;;;;;;;;5053651;28;20252;-71
2023/07/28 07:54:51;;;;;;;1.35;0.40;;;;;;;;;;5053341;28;20111;-71
2023/07/28 07:57:16;;;;;;;0.40;0.40;;;;;;;;;;5053354;28;20063;-71
2023/07/28 07:59:41;;;;;;;0.52;0.40;;;;;;;;;;5053459;28;20538;-71
2023/07/28 08:02:06;;;;;;;1.45;0.50;;;;;;;;;;5051864;28;20060;-72
2023/07/28 08:04:32;;;;;;;2.88;0.40;;;;;;;;;;5053209;28;20043;-72
2023/07/28 08:06:57;;;;;;;1.23;0.30;;;;;;;;;;5053232;28;20055;-72
2023/07/28 08:09:22;;;;;;;2.83;0.60;;;;;;;;;;5053125;28;20804;-71
2023/07/28 08:11:48;;;;;;;1.70;0.50;;;;;;;;;;5053286;28;20017;-71
2023/07/28 08:14:13;;;;;;;0.40;0.40;;;;;;;;;;5053426;28;20253;-70
2023/07/28 08:16:39;;;;;;;0.75;0.40;;;;;;;;;;5053178;28;20025;-70
2023/07/28 08:19:04;;;;;;;0.73;0.70;;;;;;;;;;5052821;28;20123;-72
2023/07/28 08:21:31;;;;;;;4.03;0.57;;;;;;;;;;5051665;28;20281;-71
2023/07/28 08:23:56;;;;;;;0.50;0.50;;;;;;;;;;5052918;28;20272;-71
2023/07/28 08:26:21;;;;;;;0.98;0.47;;;;;;;;;;5053469;28;20029;-70
2023/07/28 08:28:47;;;;;;;0.63;0.40;;;;;;;;;;5053118;28;20021;-71
2023/07/28 08:31:12;;;;;;;0.90;0.52;;;;;;;;;;5053058;28;20121;-71
2023/07/28 08:33:37;;;;;;;0.52;0.30;;;;;;;;;;5052932;28;20017;-71
2023/07/28 08:36:03;;;;;;;1.83;0.40;;;;;;;;;;5052953;28;20083;-71
2023/07/28 08:38:28;;;;;;;0.40;0.40;;;;;;;;;;5052830;28;20032;-71
2023/07/28 08:40:53;;;;;;;0.80;0.50;;;;;;;;;;5052463;28;20074;-71
2023/07/28 08:43:19;;;;;;;0.75;0.40;;;;;;;;;;5051586;28;20320;-70
2023/07/28 08:45:44;;;;;;;0.75;0.40;;;;;;;;;;5052682;28;20052;-71
2023/07/28 08:48:09;;;;;;;0.50;0.50;;;;;;;;;;5052794;28;20399;-71
2023/07/28 08:50:34;;;;;;;0.32;0.32;;;;;;;;;;5052725;28;20315;-71
2023/07/28 08:53:00;;;;;;;1.05;0.50;;;;;;;;;;5053996;28;20055;-71
2023/07/28 08:55:25;;;;;;;0.52;0.40;;;;;;;;;;5057073;28;20033;-71
2023/07/28 08:57:50;;;;;;;0.40;0.40;;;;;;;;;;5056689;28;20126;-70
2023/07/28 09:00:17;;;;;;;0.43;0.43;;;;;;;;;;5056860;28;20020;-71
2023/07/28 09:02:43;;;;;;;6.53;0.50;;;;;;;;;;5056633;28;20268;-70
2023/07/28 09:05:18;;;;;;;0.30;0.30;;;;;;;;;;5057306;28;20104;-71
2023/07/28 09:07:43;;;;;;;0.60;0.60;;;;;;;;;;5056634;28;20020;-71
2023/07/28 09:10:09;;;;;;;0.30;0.30;;;;;;;;;;5056469;28;20021;-71
2023/07/28 09:12:34;;;;;;;0.43;0.43;;;;;;;;;;5056626;28;20021;-71
2023/07/28 09:14:59;;;;;;;0.77;0.57;;;;;;;;;;5056662;28;20107;-71
2023/07/28 09:17:25;;;;;;;0.88;0.40;;;;;;;;;;5054999;28;20480;-71
2023/07/28 09:19:54;;;;;;;0.50;0.50;;;;;;;;;;5056194;28;20086;-71
2023/07/28 09:22:20;;;;;;;1.23;0.65;;;;;;;;;;5056181;28;20021;-71
2023/07/28 09:24:46;;;;;;;0.40;0.40;;;;;;;;;;5056342;28;20021;-71
2023/07/28 09:27:26;;;;;;;0.40;0.40;;;;;;;;;;5056495;28;20024;-71
2023/07/28 09:29:54;;;;;;;0.65;0.47;;;;;;;;;;5056087;28;20036;-71
2023/07/28 09:32:32;;;;;;;0.50;0.50;;;;;;;;;;5056101;28;20116;-72
2023/07/28 09:35:12;;;;;;;0.75;0.40;;;;;;;;;;5056041;28;20372;-71
2023/07/28 09:37:39;;;;;;;0.63;0.63;;;;;;;;;;5055959;28;20511;-71
2023/07/28 09:40:09;;;;;;;0.30;0.30;;;;;;;;;;5055871;28;20070;-71
2023/07/28 09:42:35;;;;;;;1.52;0.68;;;;;;;;;;5056415;28;20032;-71
2023/07/28 09:45:01;;;;;;;1.48;0.50;;;;;;;;;;5055339;28;20025;-72
2023/07/28 09:47:29;;;;;;;1.75;0.60;;;;;;;;;;5055964;28;20110;-71
2023/07/28 09:49:58;;;;;;;1.83;0.50;;;;;;;;;;5056020;28;20041;-71
2023/07/28 09:52:27;;;;;;;0.90;0.50;;;;;;;;;;5055791;28;20017;-72
2023/07/28 09:54:57;;;;;;;0.50;0.50;;;;;;;;;;5055767;28;20528;-71
2023/07/28 09:57:24;;;;;;;1.55;0.70;;;;;;;;;;5054397;28;20469;-71
2023/07/28 09:59:54;;;;;;;0.57;0.45;;;;;;;;;;5055849;28;20020;-71
2023/07/28 10:02:19;;;;;;;0.95;0.70;;;;;;;;;;5055452;28;20518;-72
2023/07/28 10:04:45;;;;;;;1.48;0.52;;;;;;;;;;5054610;28;20028;-71
2023/07/28 10:07:12;;;;;;;0.75;0.50;;;;;;;;;;5055843;28;20017;-71
2023/07/28 10:09:38;;;;;;;0.30;0.30;;;;;;;;;;5054140;28;20051;-71
2023/07/28 10:12:04;;;;;;;0.50;0.50;;;;;;;;;;5055494;28;20049;-71
2023/07/28 10:14:39;;;;;;;0.40;0.40;;;;;;;;;;5055689;28;20480;-71
2023/07/28 10:17:05;;;;;;;0.35;0.35;;;;;;;;;;5054033;28;20029;-71
2023/07/28 10:19:35;;;;;;;0.28;0.28;;;;;;;;;;5053874;28;20132;-71
2023/07/28 10:22:11;;;;;;;0.60;0.50;;;;;;;;;;5055508;28;20083;-71
2023/07/28 10:25:00;;;;;;;0.30;0.30;;;;;;;;;;5055173;28;20100;-72
2023/07/28 10:27:43;;;;;;;1.00;0.40;;;;;;;;;;5055152;28;20032;-72
2023/07/28 10:30:13;;;;;;;0.90;0.50;;;;;;;;;;5054932;28;20029;-71
2023/07/28 10:32:50;;;;;;;0.52;0.32;;;;;;;;;;5055088;28;20496;-72
2023/07/28 10:35:18;;;;;;;0.55;0.32;;;;;;;;;;5055016;28;20029;-71
2023/07/28 10:37:48;;;;;;;1.05;0.50;;;;;;;;;;5054991;28;20032;-70
2023/07/28 10:40:23;;;;;;;0.70;0.40;;;;;;;;;;5054902;28;20032;-71
2023/07/28 10:42:49;;;;;;;0.30;0.30;;;;;;;;;;5055137;28;20028;-71
2023/07/28 10:45:15;;;;;;;0.40;0.40;;;;;;;;;;5053621;28;20021;-71
2023/07/28 10:47:41;;;;;;;0.50;0.50;;;;;;;;;;5053262;28;20025;-71
2023/07/28 10:50:09;;;;;;;0.40;0.40;;;;;;;;;;5054645;28;20083;-71
2023/07/28 10:52:34;;;;;;;0.40;0.40;;;;;;;;;;5054538;28;20029;-71
2023/07/28 10:54:59;;;;;;;2.50;0.20;;;;;;;;;;5054470;28;20396;-71
2023/07/28 10:57:26;;;;;;;0.30;0.30;;;;;;;;;;5054435;28;20491;-72
2023/07/28 10:59:51;;;;;;;0.30;0.30;;;;;;;;;;5054408;28;20292;-73
2023/07/28 11:02:16;;;;;;;0.52;0.40;;;;;;;;;;5054225;28;20053;-71
2023/07/28 11:04:46;;;;;;;0.50;0.50;;;;;;;;;;5054522;28;20463;-71
2023/07/28 11:07:13;;;;;;;1.13;0.55;;;;;;;;;;5054510;28;20079;-71
2023/07/28 11:09:38;;;;;;;2.08;0.50;;;;;;;;;;5054119;28;20021;-71
2023/07/28 11:12:04;;;;;;;1.00;0.60;;;;;;;;;;5052765;28;20103;-71
2023/07/28 11:14:29;;;;;;;0.30;0.30;;;;;;;;;;5054046;28;20411;-72
2023/07/28 11:16:55;;;;;;;0.90;0.45;;;;;;;;;;5053963;28;20029;-72
2023/07/28 11:19:24;;;;;;;0.95;0.50;;;;;;;;;;5054112;28;20044;-71
2023/07/28 11:21:51;;;;;;;2.08;0.50;;;;;;;;;;5053941;28;20025;-72
2023/07/28 11:24:21;;;;;;;1.60;0.50;;;;;;;;;;5054100;28;20056;-71
2023/07/28 11:26:46;;;;;;;1.13;0.50;;;;;;;;;;5053813;28;20089;-71
2023/07/28 11:29:12;;;;;;;0.30;0.30;;;;;;;;;;5053704;28;20024;-71
2023/07/28 11:31:38;;;;;;;0.80;0.50;;;;;;;;;;5054106;28;20021;-72
2023/07/28 11:34:13;;;;;;;3.17;0.60;;;;;;;;;;5053813;28;20025;-71
2023/07/28 11:36:38;;;;;;;0.40;0.40;;;;;;;;;;5053697;28;20392;-71
2023/07/28 11:39:05;;;;;;;5.73;0.50;;;;;;;;;;5054119;28;20025;-71
2023/07/28 11:41:31;;;;;;;0.85;0.40;;;;;;;;;;5053436;28;20284;-71
2023/07/28 11:43:56;;;;;;;0.50;0.50;;;;;;;;;;5053594;28;20108;-71
2023/07/28 11:46:34;;;;;;;0.50;0.50;;;;;;;;;;5053556;28;20083;-71
2023/07/28 11:49:11;;;;;;;1.48;0.40;;;;;;;;;;5053897;28;20530;-71
2023/07/28 11:51:39;;;;;;;0.77;0.57;;;;;;;;;;5053391;28;20039;-72
2023/07/28 11:54:05;;;;;;;0.50;0.40;;;;;;;;;;5051995;28;20029;-72
2023/07/28 11:56:31;;;;;;;1.33;0.35;;;;;;;;;;5054254;28;20412;-71
2023/07/28 11:58:56;;;;;;;0.50;0.47;;;;;;;;;;5053170;28;20028;-71
2023/07/28 12:01:21;;;;;;;0.50;0.50;;;;;;;;;;5051764;28;20396;-72
2023/07/28 12:03:47;;;;;;;0.55;0.55;;;;;;;;;;5053215;28;20056;-71
2023/07/28 12:06:12;;;;;;;0.70;0.60;;;;;;;;;;5053151;28;20025;-71
2023/07/28 12:08:38;;;;;;;2.40;0.60;;;;;;;;;;5053411;28;20341;-71
2023/07/28 12:11:03;;;;;;;1.83;0.60;;;;;;;;;;5053071;28;20629;-71
2023/07/28 12:13:29;;;;;;;0.68;0.50;;;;;;;;;;5053042;28;20480;-71
2023/07/28 12:15:54;;;;;;;0.60;0.60;;;;;;;;;;5053216;28;20024;-71
2023/07/28 12:18:19;;;;;;;0.50;0.50;;;;;;;;;;5053039;28;20025;-72
2023/07/28 12:20:47;;;;;;;0.50;0.50;;;;;;;;;;5052800;28;20025;-72
2023/07/28 12:23:22;;;;;;;1.02;0.50;;;;;;;;;;5052911;28;20499;-71
2023/07/28 12:25:48;;;;;;;0.60;0.55;;;;;;;;;;5053028;28;20032;-72
2023/07/28 12:28:13;;;;;;;1.50;0.60;;;;;;;;;;5052402;28;20033;-71
2023/07/28 12:30:39;;;;;;;0.50;0.50;;;;;;;;;;5052946;28;20044;-71
2023/07/28 12:33:05;;;;;;;0.50;0.50;;;;;;;;;;5052808;28;20032;-72
2023/07/28 12:35:34;;;;;;;0.63;0.40;;;;;;;;;;5053111;28;20387;-71
2023/07/28 12:38:00;;;;;;;0.57;0.47;;;;;;;;;;5052782;28;20017;-71
2023/07/28 12:40:27;;;;;;;0.40;0.40;;;;;;;;;;5052623;28;20480;-72
2023/07/28 12:42:53;;;;;;;0.60;0.60;;;;;;;;;;5052593;28;20062;-71
2023/07/28 12:45:18;;;;;;;0.73;0.53;;;;;;;;;;5052723;28;20055;-71
2023/07/28 12:47:43;;;;;;;1.00;0.60;;;;;;;;;;5052606;28;20254;-71
2023/07/28 12:50:09;;;;;;;3.83;0.70;;;;;;;;;;5052758;28;20021;-71
2023/07/28 12:52:36;;;;;;;0.80;0.47;;;;;;;;;;5051375;28;20075;-72
2023/07/28 12:55:01;;;;;;;0.93;0.60;;;;;;;;;;5051268;28;20025;-72
2023/07/28 12:57:26;;;;;;;0.50;0.50;;;;;;;;;;5052631;28;20101;-71
2023/07/28 12:59:51;;;;;;;1.17;0.50;;;;;;;;;;5052458;28;20484;-71
2023/07/28 13:02:17;;;;;;;1.17;0.60;;;;;;;;;;5052331;28;20021;-72
2023/07/28 13:04:43;;;;;;;0.50;0.50;;;;;;;;;;5052496;28;20395;-71
2023/07/28 13:07:08;;;;;;;0.50;0.50;;;;;;;;;;5052688;28;20021;-71
2023/07/28 13:09:33;;;;;;;1.55;0.65;;;;;;;;;;5052356;28;20037;-72
2023/07/28 13:11:58;;;;;;;3.00;0.50;;;;;;;;;;5052411;28;20029;-71
2023/07/28 13:14:24;;;;;;;0.60;0.60;;;;;;;;;;5052294;28;20024;-71
2023/07/28 13:16:50;;;;;;;5.35;0.60;;;;;;;;;;5052248;28;20262;-71
2023/07/28 13:19:15;;;;;;;0.50;0.50;;;;;;;;;;5051895;28;20036;-72
2023/07/28 13:21:41;;;;;;;2.72;0.50;;;;;;;;;;5052232;28;20033;-71
2023/07/28 13:24:06;;;;;;;0.60;0.60;;;;;;;;;;5052887;28;20028;-71
2023/07/28 13:26:31;;;;;;;3.22;0.63;;;;;;;;;;5052315;28;20262;-70
2023/07/28 13:28:58;;;;;;;0.80;0.70;;;;;;;;;;5052245;28;20020;-71
2023/07/28 13:31:24;;;;;;;1.05;0.50;;;;;;;;;;5052171;28;20632;-72
2023/07/28 13:33:49;;;;;;;2.55;0.70;;;;;;;;;;5052524;28;20025;-72
2023/07/28 13:36:14;;;;;;;2.97;0.65;;;;;;;;;;5052175;28;20025;-71
2023/07/28 13:38:40;;;;;;;1.33;0.53;;;;;;;;;;5052163;28;20025;-71
2023/07/28 13:41:06;;;;;;;1.05;0.70;;;;;;;;;;5054363;28;20294;-71
2023/07/28 13:43:36;;;;;;;1.13;0.50;;;;;;;;;;5055791;28;20032;-71
2023/07/28 13:46:02;;;;;;;0.93;0.60;;;;;;;;;;5054481;28;20108;-71
2023/07/28 13:48:27;;;;;;;0.60;0.60;;;;;;;;;;5056063;28;20392;-72
2023/07/28 13:50:53;;;;;;;0.80;0.60;;;;;;;;;;5055663;28;20025;-72
2023/07/28 13:53:18;;;;;;;0.60;0.60;;;;;;;;;;5055646;28;20021;-71
2023/07/28 13:55:43;;;;;;;0.63;0.50;;;;;;;;;;5055788;28;20553;-71
2023/07/28 13:58:08;;;;;;;0.63;0.60;;;;;;;;;;5055799;28;20620;-71
2023/07/28 14:00:34;;;;;;;0.52;0.50;;;;;;;;;;5053981;28;20028;-71
2023/07/28 14:02:59;;;;;;;0.87;0.60;;;;;;;;;;5055977;28;20049;-71
2023/07/28 14:05:24;;;;;;;1.60;0.70;;;;;;;;;;5055622;28;20269;-72
2023/07/28 14:07:49;;;;;;;0.65;0.60;;;;;;;;;;5055264;28;20139;-71
2023/07/28 14:10:15;;;;;;;0.60;0.60;;;;;;;;;;5055265;28;20025;-71
2023/07/28 14:12:40;;;;;;;2.07;0.70;;;;;;;;;;5055274;28;20257;-72
2023/07/28 14:15:08;;;;;;;0.80;0.60;;;;;;;;;;5055163;28;20268;-71
2023/07/28 14:17:33;;;;;;;0.82;0.57;;;;;;;;;;5055037;28;20272;-72
2023/07/28 14:19:58;;;;;;;0.60;0.60;;;;;;;;;;5054902;28;20428;-73
2023/07/28 14:22:23;;;;;;;1.93;0.60;;;;;;;;;;5053726;28;20043;-72
2023/07/28 14:24:49;;;;;;;0.55;0.55;;;;;;;;;;5055024;28;20258;-73
2023/07/28 14:27:14;;;;;;;0.60;0.60;;;;;;;;;;5055028;28;20082;-72
2023/07/28 14:29:39;;;;;;;1.37;0.60;;;;;;;;;;5055169;28;20277;-72
2023/07/28 14:32:05;;;;;;;0.50;0.50;;;;;;;;;;5054976;28;20717;-72
2023/07/28 14:34:30;;;;;;;5.45;0.85;;;;;;;;;;5053761;28;20332;-72
2023/07/28 14:36:55;;;;;;;0.47;0.47;;;;;;;;;;5054776;28;20059;-72